createdAt,value
2023-11-09T00:00:27.354Z,4.42
2023-11-09T00:02:54.105Z,4.40
2023-11-09T00:05:20.856Z,4.30
2023-11-09T00:07:47.768Z,4.30
2023-11-09T00:10:14.575Z,4.39
2023-11-09T00:12:41.256Z,4.31
2023-11-09T00:15:08.060Z,4.30
2023-11-09T00:17:34.784Z,4.32
2023-11-09T00:20:01.575Z,4.30
2023-11-09T00:22:28.359Z,4.18
2023-11-09T00:24:55.024Z,4.10
2023-11-09T00:27:22.041Z,4.17
2023-11-09T00:29:48.899Z,4.24
2023-11-09T00:32:15.712Z,4.22
2023-11-09T00:34:42.470Z,4.12
2023-11-09T00:37:09.271Z,4.11
2023-11-09T00:39:36.152Z,4.02
2023-11-09T00:42:02.865Z,3.97
2023-11-09T00:44:29.528Z,3.96
2023-11-09T00:46:56.194Z,4.03
2023-11-09T00:49:22.829Z,4.07
2023-11-09T00:51:49.509Z,4.10
2023-11-09T00:54:16.152Z,3.85
2023-11-09T00:56:42.884Z,3.94
2023-11-09T00:59:09.509Z,3.74
2023-11-09T01:01:36.134Z,3.65
2023-11-09T01:04:02.900Z,3.60
2023-11-09T01:06:29.813Z,3.61
2023-11-09T01:08:56.502Z,3.72
2023-11-09T01:11:24.146Z,3.60
2023-11-09T01:13:50.966Z,3.49
2023-11-09T01:16:17.660Z,3.48
2023-11-09T01:18:46.639Z,3.58
2023-11-09T01:21:13.443Z,3.62
2023-11-09T01:23:40.098Z,3.62
2023-11-09T01:26:06.970Z,3.65
2023-11-09T01:28:33.922Z,3.45
2023-11-09T01:31:00.682Z,3.51
2023-11-09T01:33:27.529Z,3.62
2023-11-09T01:35:54.179Z,3.59
2023-11-09T01:38:20.937Z,3.61
2023-11-09T01:40:54.619Z,3.63
2023-11-09T01:43:22.102Z,3.58
2023-11-09T01:45:49.749Z,3.39
2023-11-09T01:48:16.668Z,3.19
2023-11-09T01:50:43.616Z,3.25
2023-11-09T01:53:10.341Z,3.27
2023-11-09T01:55:37.705Z,3.37
2023-11-09T01:58:04.780Z,3.30
2023-11-09T02:00:31.668Z,3.37
2023-11-09T02:03:00.240Z,3.39
2023-11-09T02:05:27.348Z,3.20
2023-11-09T02:07:54.493Z,3.28
2023-11-09T02:10:21.657Z,3.24
2023-11-09T02:12:48.622Z,3.05
2023-11-09T02:15:15.407Z,3.10
2023-11-09T02:17:42.225Z,2.93
2023-11-09T02:20:10.834Z,2.89
2023-11-09T02:22:38.321Z,2.77
2023-11-09T02:25:05.573Z,2.85
2023-11-09T02:27:32.227Z,2.80
2023-11-09T02:29:58.958Z,2.73
2023-11-09T02:32:25.631Z,2.76
2023-11-09T02:34:52.340Z,2.93
2023-11-09T02:37:19.003Z,2.89
2023-11-09T02:39:45.651Z,2.98
2023-11-09T02:42:12.446Z,3.09
2023-11-09T02:44:39.474Z,3.00
2023-11-09T02:47:06.093Z,3.02
2023-11-09T02:49:32.786Z,2.98
2023-11-09T02:51:59.586Z,3.10
2023-11-09T02:54:26.410Z,2.97
2023-11-09T02:56:53.048Z,2.93
2023-11-09T02:59:19.826Z,2.83
2023-11-09T03:01:46.618Z,2.79
2023-11-09T03:04:13.292Z,2.77
2023-11-09T03:06:39.953Z,2.61
2023-11-09T03:09:06.690Z,2.53
2023-11-09T03:11:33.352Z,2.63
2023-11-09T03:14:00.000Z,2.70
2023-11-09T03:16:27.112Z,2.64
2023-11-09T03:18:53.818Z,2.68
2023-11-09T03:21:20.511Z,2.52
2023-11-09T03:23:47.141Z,2.42
2023-11-09T03:26:14.868Z,2.51
2023-11-09T03:28:41.481Z,2.64
2023-11-09T03:31:08.402Z,2.83
2023-11-09T03:33:35.194Z,2.83
2023-11-09T03:36:01.838Z,2.73
2023-11-09T03:38:28.477Z,2.91
2023-11-09T03:40:55.336Z,3.02
2023-11-09T03:43:22.248Z,2.97
2023-11-09T03:45:49.115Z,2.91
2023-11-09T03:48:15.818Z,3.08
2023-11-09T03:50:45.800Z,2.99
2023-11-09T03:53:12.450Z,2.97
2023-11-09T03:55:39.097Z,2.69
2023-11-09T03:58:05.962Z,2.84
2023-11-09T04:00:32.677Z,2.77
2023-11-09T04:02:59.376Z,2.82
2023-11-09T04:05:26.255Z,2.83
2023-11-09T04:07:52.971Z,2.93
2023-11-09T04:10:19.685Z,2.82
2023-11-09T04:12:46.405Z,2.82
2023-11-09T04:15:13.358Z,2.78
2023-11-09T04:17:42.460Z,2.74
2023-11-09T04:20:09.609Z,2.75
2023-11-09T04:22:36.687Z,2.66
2023-11-09T04:25:03.650Z,2.61
2023-11-09T04:27:30.519Z,2.78
2023-11-09T04:29:57.202Z,2.60
2023-11-09T04:32:23.968Z,2.58
2023-11-09T04:34:50.703Z,2.61
2023-11-09T04:37:17.362Z,2.65
2023-11-09T04:39:44.599Z,2.43
2023-11-09T04:42:11.439Z,2.59
2023-11-09T04:44:38.291Z,2.48
2023-11-09T04:47:05.143Z,2.36
2023-11-09T04:49:31.864Z,2.18
2023-11-09T04:51:58.667Z,2.59
2023-11-09T04:54:25.284Z,2.31
2023-11-09T04:56:53.099Z,2.26
2023-11-09T04:59:23.533Z,2.14
2023-11-09T05:01:51.465Z,2.38
2023-11-09T05:04:18.155Z,2.45
2023-11-09T05:06:46.692Z,2.48
2023-11-09T05:09:13.342Z,2.47
2023-11-09T05:11:40.297Z,2.44
2023-11-09T05:14:07.138Z,2.44
2023-11-09T05:16:33.802Z,2.48
2023-11-09T05:19:00.503Z,2.29
2023-11-09T05:21:27.265Z,2.32
2023-11-09T05:23:53.926Z,2.35
2023-11-09T05:26:20.837Z,2.36
2023-11-09T05:28:47.613Z,2.28
2023-11-09T05:31:14.691Z,2.43
2023-11-09T05:33:41.809Z,2.42
2023-11-09T05:36:08.814Z,2.47
2023-11-09T05:38:38.718Z,2.42
2023-11-09T05:41:05.455Z,2.57
2023-11-09T05:43:32.163Z,2.53
2023-11-09T05:45:58.820Z,2.36
2023-11-09T05:48:25.743Z,2.28
2023-11-09T05:50:52.631Z,2.41
2023-11-09T05:53:19.263Z,2.31
2023-11-09T05:55:45.927Z,2.38
2023-11-09T05:58:12.738Z,2.36
2023-11-09T06:00:40.410Z,2.24
2023-11-09T06:03:07.107Z,2.32
2023-11-09T06:05:33.924Z,2.36
2023-11-09T06:08:00.667Z,2.50
2023-11-09T06:10:27.502Z,2.31
2023-11-09T06:12:54.170Z,2.35
2023-11-09T06:15:20.877Z,2.38
2023-11-09T06:17:47.666Z,2.36
2023-11-09T06:20:15.014Z,2.44
2023-11-09T06:22:41.950Z,2.51
2023-11-09T06:25:09.666Z,2.46
2023-11-09T06:27:36.556Z,2.45
2023-11-09T06:30:04.207Z,2.64
2023-11-09T06:32:31.620Z,2.44
2023-11-09T06:34:58.254Z,2.63
2023-11-09T06:37:24.927Z,2.58
2023-11-09T06:39:51.550Z,2.66
2023-11-09T06:42:18.185Z,2.64
2023-11-09T06:44:45.757Z,2.52
2023-11-09T06:47:12.528Z,2.77
2023-11-09T06:49:39.418Z,2.64
2023-11-09T06:52:06.840Z,2.47
2023-11-09T06:54:33.646Z,2.45
2023-11-09T06:57:00.474Z,2.77
2023-11-09T06:59:27.136Z,2.69
2023-11-09T07:01:53.874Z,2.47
2023-11-09T07:04:20.713Z,2.62
2023-11-09T07:06:47.618Z,2.49
2023-11-09T07:09:14.524Z,2.54
2023-11-09T07:11:41.394Z,2.58
2023-11-09T07:14:08.113Z,2.48
2023-11-09T07:16:34.808Z,2.59
2023-11-09T07:19:01.649Z,2.73
2023-11-09T07:21:28.717Z,2.76
2023-11-09T07:23:55.368Z,2.85
2023-11-09T07:26:21.992Z,3.12
2023-11-09T07:28:48.589Z,3.25
2023-11-09T07:31:16.866Z,3.47
2023-11-09T07:33:43.756Z,3.30
2023-11-09T07:36:10.419Z,3.25
2023-11-09T07:38:37.399Z,3.30
2023-11-09T07:41:04.479Z,3.27
2023-11-09T07:43:31.340Z,3.23
2023-11-09T07:46:00.405Z,3.41
2023-11-09T07:48:27.152Z,3.57
2023-11-09T07:50:53.897Z,3.43
2023-11-09T07:53:21.071Z,3.90
2023-11-09T07:55:50.759Z,3.85
2023-11-09T07:58:18.169Z,4.01
2023-11-09T08:00:45.149Z,4.42
2023-11-09T08:03:12.014Z,4.62
2023-11-09T08:05:39.750Z,4.57
2023-11-09T08:08:06.408Z,4.52
2023-11-09T08:10:33.095Z,4.64
2023-11-09T08:12:59.837Z,4.62
2023-11-09T08:15:26.622Z,4.99
2023-11-09T08:17:53.406Z,4.69
2023-11-09T08:20:20.117Z,4.85
2023-11-09T08:22:47.681Z,5.05
2023-11-09T08:25:16.368Z,5.54
2023-11-09T08:27:43.406Z,5.71
2023-11-09T08:30:11.702Z,5.74
2023-11-09T08:32:39.591Z,5.83
2023-11-09T08:35:07.171Z,5.97
2023-11-09T08:37:33.792Z,6.30
2023-11-09T08:40:00.526Z,6.22
2023-11-09T08:42:27.161Z,6.50
2023-11-09T08:44:53.802Z,6.62
2023-11-09T08:47:20.474Z,6.76
2023-11-09T08:49:47.168Z,6.75
2023-11-09T08:52:13.883Z,6.94
2023-11-09T08:54:40.591Z,7.05
2023-11-09T08:57:07.221Z,7.35
2023-11-09T08:59:35.437Z,7.31
2023-11-09T09:02:03.697Z,7.14
2023-11-09T09:04:30.335Z,7.18
2023-11-09T09:06:57.048Z,7.63
2023-11-09T09:09:25.041Z,7.78
2023-11-09T09:11:53.502Z,7.98
2023-11-09T09:14:20.138Z,8.02
2023-11-09T09:16:46.787Z,8.05
2023-11-09T09:19:13.504Z,8.36
2023-11-09T09:21:40.476Z,8.59
2023-11-09T09:24:07.586Z,8.50
2023-11-09T09:26:34.484Z,8.65
2023-11-09T09:29:01.286Z,8.84
2023-11-09T09:31:29.009Z,8.98
2023-11-09T09:34:03.936Z,9.23
2023-11-09T09:36:30.829Z,9.01
2023-11-09T09:38:57.485Z,9.30
2023-11-09T09:41:29.416Z,9.36
2023-11-09T09:43:56.783Z,9.47
2023-11-09T09:46:23.888Z,9.59
2023-11-09T09:48:52.808Z,9.93
2023-11-09T09:51:20.157Z,10.06
2023-11-09T09:53:48.626Z,9.93
2023-11-09T09:56:17.393Z,9.83
2023-11-09T09:58:44.868Z,10.15
2023-11-09T10:01:12.202Z,10.29
2023-11-09T10:03:39.498Z,10.53
2023-11-09T10:06:06.323Z,10.51
2023-11-09T10:08:33.769Z,10.32
2023-11-09T10:11:00.946Z,10.39
2023-11-09T10:13:29.224Z,10.26
2023-11-09T10:15:57.564Z,10.28
2023-11-09T10:18:32.055Z,10.65
2023-11-09T10:21:00.801Z,10.60
2023-11-09T10:23:27.720Z,10.79
2023-11-09T10:25:56.763Z,10.74
2023-11-09T10:28:23.485Z,10.89
2023-11-09T10:30:50.185Z,10.90
2023-11-09T10:33:18.588Z,11.06
2023-11-09T10:35:47.157Z,11.31
2023-11-09T10:38:16.485Z,11.08
2023-11-09T10:41:13.657Z,11.29
2023-11-09T10:43:31.574Z,11.27
2023-11-09T10:45:58.515Z,11.27
2023-11-09T10:48:25.730Z,11.46
2023-11-09T10:50:52.444Z,11.58
2023-11-09T10:53:22.887Z,11.54
2023-11-09T10:55:52.164Z,11.75
2023-11-09T10:58:19.101Z,11.73
2023-11-09T11:00:45.751Z,11.71
2023-11-09T11:03:31.886Z,11.69
2023-11-09T11:06:29.287Z,11.58
2023-11-09T11:09:03.088Z,11.71
2023-11-09T11:11:31.601Z,11.84
2023-11-09T11:14:02.336Z,11.55
2023-11-09T11:16:38.358Z,11.56
2023-11-09T11:19:13.952Z,11.63
2023-11-09T11:22:14.396Z,11.86
2023-11-09T11:24:59.222Z,11.70
2023-11-09T11:27:50.566Z,11.95
2023-11-09T11:30:31.811Z,12.00
2023-11-09T11:33:02.674Z,12.16
2023-11-09T11:35:41.896Z,12.26
2023-11-09T11:38:14.905Z,12.19
2023-11-09T11:40:43.093Z,12.16
2023-11-09T11:43:10.536Z,12.32
2023-11-09T11:45:37.541Z,12.24
2023-11-09T11:48:04.852Z,12.14
2023-11-09T11:50:33.683Z,12.12
2023-11-09T11:53:04.434Z,12.12
2023-11-09T11:55:34.610Z,11.97
2023-11-09T11:58:03.044Z,11.84
2023-11-09T12:00:40.609Z,11.77
2023-11-09T12:03:14.076Z,11.87
2023-11-09T12:05:44.610Z,11.90
2023-11-09T12:08:11.526Z,12.20
2023-11-09T12:10:38.266Z,12.37
2023-11-09T12:13:05.154Z,12.35
2023-11-09T12:15:31.806Z,12.14
2023-11-09T12:17:58.639Z,12.21
2023-11-09T12:20:25.312Z,12.28
2023-11-09T12:22:52.362Z,12.20
2023-11-09T12:25:19.296Z,12.16
2023-11-09T12:27:46.858Z,12.20
2023-11-09T12:30:15.162Z,12.14
2023-11-09T12:32:41.869Z,12.35
2023-11-09T12:35:17.868Z,12.34
2023-11-09T12:37:44.794Z,12.42
2023-11-09T12:40:11.844Z,12.53
2023-11-09T12:42:39.566Z,12.76
2023-11-09T12:45:26.225Z,12.76
2023-11-09T12:47:58.169Z,12.90
2023-11-09T12:50:24.879Z,13.05
2023-11-09T12:52:51.672Z,13.17
2023-11-09T12:55:22.105Z,13.22
2023-11-09T12:57:50.386Z,13.17
2023-11-09T13:00:17.352Z,13.36
2023-11-09T13:02:44.446Z,13.30
2023-11-09T13:05:11.276Z,13.50
2023-11-09T13:07:38.014Z,13.61
2023-11-09T13:10:05.433Z,13.33
2023-11-09T13:12:35.005Z,13.16
2023-11-09T13:15:01.917Z,13.32
2023-11-09T13:17:28.632Z,13.00
2023-11-09T13:19:55.315Z,12.77
2023-11-09T13:22:21.984Z,12.79
2023-11-09T13:24:49.091Z,12.71
2023-11-09T13:27:15.770Z,12.36
2023-11-09T13:29:44.052Z,12.48
2023-11-09T13:32:11.343Z,12.88
2023-11-09T13:34:38.010Z,12.95
2023-11-09T13:37:04.679Z,12.72
2023-11-09T13:39:31.677Z,12.76
2023-11-09T13:41:58.256Z,12.97
2023-11-09T13:44:24.889Z,12.85
2023-11-09T13:46:52.215Z,12.75
2023-11-09T13:49:18.868Z,12.33
2023-11-09T13:51:46.639Z,12.25
2023-11-09T13:54:13.279Z,12.22
2023-11-09T13:56:39.930Z,12.06
2023-11-09T13:59:06.575Z,12.27
2023-11-09T14:01:33.216Z,12.14
2023-11-09T14:03:59.885Z,11.96
2023-11-09T14:06:26.841Z,12.16
2023-11-09T14:08:53.439Z,12.18
2023-11-09T14:11:20.089Z,12.04
2023-11-09T14:13:46.789Z,12.12
2023-11-09T14:16:17.303Z,12.22
2023-11-09T14:18:43.961Z,11.85
2023-11-09T14:21:10.608Z,12.10
2023-11-09T14:23:39.661Z,12.03
2023-11-09T14:26:07.348Z,12.03
2023-11-09T14:28:34.190Z,11.87
2023-11-09T14:31:01.010Z,12.00
2023-11-09T14:33:27.722Z,11.89
2023-11-09T14:35:54.810Z,11.94
2023-11-09T14:38:24.361Z,11.45
2023-11-09T14:40:51.666Z,11.69
2023-11-09T14:43:18.791Z,11.08
2023-11-09T14:45:46.819Z,11.64
2023-11-09T14:48:14.397Z,11.51
2023-11-09T14:50:43.164Z,11.63
2023-11-09T14:53:12.227Z,11.62
2023-11-09T14:55:42.287Z,11.50
2023-11-09T14:58:09.095Z,11.69
2023-11-09T15:00:36.093Z,11.51
2023-11-09T15:03:05.750Z,11.22
2023-11-09T15:05:32.516Z,11.02
2023-11-09T15:07:59.221Z,11.39
2023-11-09T15:10:26.012Z,11.07
2023-11-09T15:12:54.434Z,11.22
2023-11-09T15:15:21.709Z,10.55
2023-11-09T15:17:48.839Z,10.69
2023-11-09T15:20:15.504Z,10.71
2023-11-09T15:22:42.169Z,10.65
2023-11-09T15:25:08.918Z,10.56
2023-11-09T15:27:35.622Z,10.52
2023-11-09T15:30:02.497Z,10.50
2023-11-09T15:32:30.354Z,10.02
2023-11-09T15:34:57.152Z,10.46
2023-11-09T15:37:23.909Z,10.31
2023-11-09T15:40:12.761Z,10.41
2023-11-09T15:42:37.753Z,10.15
2023-11-09T15:45:05.824Z,10.07
2023-11-09T15:47:32.469Z,10.28
2023-11-09T15:49:59.361Z,10.29
2023-11-09T15:52:26.043Z,10.16
2023-11-09T15:54:52.650Z,9.95
2023-11-09T15:57:19.364Z,10.32
2023-11-09T15:59:46.027Z,10.12
2023-11-09T16:02:12.772Z,10.00
2023-11-09T16:04:39.448Z,10.07
2023-11-09T16:07:07.563Z,10.17
2023-11-09T16:09:34.794Z,9.71
2023-11-09T16:12:02.133Z,9.80
2023-11-09T16:14:28.818Z,9.70
2023-11-09T16:16:55.509Z,9.74
2023-11-09T16:19:22.167Z,9.65
2023-11-09T16:21:49.219Z,9.70
2023-11-09T16:24:16.290Z,9.72
2023-11-09T16:26:42.928Z,9.54
2023-11-09T16:29:10.029Z,9.50
2023-11-09T16:31:36.743Z,9.54
2023-11-09T16:34:03.522Z,9.21
2023-11-09T16:36:30.161Z,9.33
2023-11-09T16:38:57.219Z,9.45
2023-11-09T16:41:24.168Z,9.34
2023-11-09T16:43:51.313Z,8.91
2023-11-09T16:46:17.984Z,9.05
2023-11-09T16:48:45.080Z,9.15
2023-11-09T16:51:11.980Z,9.19
2023-11-09T16:53:38.935Z,8.99
2023-11-09T16:56:06.644Z,9.15
2023-11-09T16:58:33.288Z,9.25
2023-11-09T17:00:59.944Z,9.44
2023-11-09T17:03:26.654Z,9.23
2023-11-09T17:05:53.551Z,9.12
2023-11-09T17:08:20.340Z,8.92
2023-11-09T17:10:46.985Z,8.91
2023-11-09T17:13:13.721Z,8.75
2023-11-09T17:15:40.441Z,8.61
2023-11-09T17:18:07.213Z,8.61
2023-11-09T17:20:33.914Z,8.27
2023-11-09T17:23:00.671Z,8.46
2023-11-09T17:25:27.456Z,8.30
2023-11-09T17:27:54.079Z,8.14
2023-11-09T17:30:20.711Z,7.96
2023-11-09T17:32:47.496Z,7.75
2023-11-09T17:35:14.212Z,7.97
2023-11-09T17:37:40.924Z,7.95
2023-11-09T17:40:08.218Z,8.21
2023-11-09T17:42:34.986Z,8.04
2023-11-09T17:45:01.804Z,7.94
2023-11-09T17:47:28.615Z,7.91
2023-11-09T17:49:55.296Z,7.97
2023-11-09T17:52:22.012Z,7.93
2023-11-09T17:54:48.685Z,8.23
2023-11-09T17:57:15.344Z,8.21
2023-11-09T17:59:42.053Z,8.22
2023-11-09T18:02:08.987Z,8.17
2023-11-09T18:04:36.405Z,8.01
2023-11-09T18:07:04.503Z,8.12
2023-11-09T18:09:31.698Z,8.09
2023-11-09T18:11:58.301Z,7.87
2023-11-09T18:14:24.944Z,8.11
2023-11-09T18:16:51.791Z,8.13
2023-11-09T18:19:18.954Z,7.82
2023-11-09T18:21:45.858Z,7.76
2023-11-09T18:24:12.979Z,7.72
2023-11-09T18:26:39.904Z,7.78
2023-11-09T18:29:06.749Z,7.71
2023-11-09T18:31:33.552Z,7.85
2023-11-09T18:34:00.244Z,8.08
2023-11-09T18:36:26.916Z,8.10
2023-11-09T18:38:53.571Z,7.96
2023-11-09T18:41:20.323Z,8.05
2023-11-09T18:43:46.968Z,7.87
2023-11-09T18:46:14.861Z,7.66
2023-11-09T18:48:41.668Z,7.63
2023-11-09T18:51:09.098Z,7.94
2023-11-09T18:53:35.997Z,7.99
2023-11-09T18:56:02.675Z,7.81
2023-11-09T18:58:29.308Z,7.87
2023-11-09T19:00:56.128Z,7.77
2023-11-09T19:05:52.499Z,7.80
2023-11-09T19:08:19.213Z,7.59
2023-11-09T19:10:45.890Z,7.66
2023-11-09T19:13:12.559Z,7.96
2023-11-09T19:15:39.276Z,7.78
2023-11-09T19:18:06.071Z,7.73
2023-11-09T19:23:02.327Z,7.85
2023-11-09T19:25:29.278Z,7.64
2023-11-09T19:27:56.250Z,7.69
2023-11-09T19:30:22.904Z,7.62
2023-11-09T19:32:50.176Z,7.62
2023-11-09T19:35:16.882Z,7.74
2023-11-09T19:37:43.667Z,7.87
2023-11-09T19:40:10.669Z,7.71
2023-11-09T19:42:37.423Z,7.96
2023-11-09T19:45:04.425Z,7.96
2023-11-09T19:47:31.404Z,7.77
2023-11-09T19:49:58.151Z,7.85
2023-11-09T19:52:24.874Z,7.94
2023-11-09T19:54:51.541Z,8.19
2023-11-09T19:57:18.205Z,7.98
2023-11-09T19:59:44.827Z,8.25
2023-11-09T20:02:11.619Z,8.08
2023-11-09T20:04:38.306Z,8.05
2023-11-09T20:07:05.167Z,8.00
2023-11-09T20:09:31.961Z,8.11
2023-11-09T20:11:58.740Z,7.97
2023-11-09T20:14:27.532Z,7.99
2023-11-09T20:16:54.156Z,8.04
2023-11-09T20:19:21.011Z,8.23
2023-11-09T20:21:47.771Z,8.16
2023-11-09T20:24:14.483Z,8.02
2023-11-09T20:26:41.145Z,7.96
2023-11-09T20:29:07.993Z,7.94
2023-11-09T20:31:34.615Z,7.65
2023-11-09T20:34:01.465Z,7.64
2023-11-09T20:36:28.295Z,7.74
2023-11-09T20:38:55.107Z,7.37
2023-11-09T20:41:22.024Z,7.69
2023-11-09T20:43:48.659Z,7.63
2023-11-09T20:46:15.803Z,7.76
2023-11-09T20:48:42.616Z,7.82
2023-11-09T20:51:09.388Z,7.84
2023-11-09T20:53:36.658Z,7.61
2023-11-09T20:56:03.437Z,7.68
2023-11-09T20:58:30.079Z,7.66
2023-11-09T21:00:56.732Z,7.67
2023-11-09T21:03:23.455Z,7.57
2023-11-09T21:05:50.247Z,7.68
2023-11-09T21:08:16.953Z,7.72
2023-11-09T21:10:43.857Z,7.66
2023-11-09T21:13:10.548Z,7.80
2023-11-09T21:15:37.232Z,7.60
2023-11-09T21:18:06.243Z,7.73
2023-11-09T21:20:32.980Z,8.00
2023-11-09T21:22:59.711Z,7.88
2023-11-09T21:25:26.442Z,7.85
2023-11-09T21:27:53.182Z,7.76
2023-11-09T21:30:20.335Z,7.92
2023-11-09T21:32:49.903Z,8.05
2023-11-09T21:35:17.161Z,8.14
2023-11-09T21:37:44.483Z,7.71
2023-11-09T21:40:11.866Z,7.95
2023-11-09T21:42:38.607Z,7.63
2023-11-09T21:45:05.827Z,7.79
2023-11-09T21:47:32.525Z,7.91
2023-11-09T21:50:00.456Z,7.66
2023-11-09T21:52:27.114Z,7.78
2023-11-09T21:54:53.845Z,7.87
2023-11-09T21:57:20.507Z,7.57
2023-11-09T21:59:47.419Z,7.53
2023-11-09T22:02:14.167Z,7.64
2023-11-09T22:04:40.922Z,7.66
2023-11-09T22:07:07.666Z,7.51
2023-11-09T22:09:34.935Z,7.83
2023-11-09T22:12:03.520Z,7.76
2023-11-09T22:14:30.732Z,7.81
2023-11-09T22:16:57.437Z,7.65
2023-11-09T22:19:24.144Z,7.69
2023-11-09T22:21:50.868Z,7.63
2023-11-09T22:24:17.706Z,7.45
2023-11-09T22:26:48.086Z,7.70
2023-11-09T22:29:15.177Z,7.56
2023-11-09T22:31:42.188Z,7.47
2023-11-09T22:34:09.041Z,7.37
2023-11-09T22:36:35.845Z,7.38
2023-11-09T22:39:02.660Z,7.34
2023-11-09T22:41:29.383Z,7.30
2023-11-09T22:43:56.039Z,7.36
2023-11-09T22:46:22.717Z,6.88
2023-11-09T22:48:52.592Z,6.90
2023-11-09T22:51:22.475Z,6.89
2023-11-09T22:53:49.335Z,7.04
2023-11-09T22:56:15.986Z,7.05
2023-11-09T22:58:42.650Z,6.78
2023-11-09T23:01:09.480Z,7.01
2023-11-09T23:03:36.286Z,7.07
2023-11-09T23:06:03.103Z,7.13
2023-11-09T23:08:29.921Z,7.20
2023-11-09T23:10:56.599Z,6.68
2023-11-09T23:13:23.438Z,7.13
2023-11-09T23:15:50.064Z,6.89
2023-11-09T23:18:17.427Z,7.04
2023-11-09T23:20:45.063Z,7.12
2023-11-09T23:23:12.037Z,7.10
2023-11-09T23:25:38.795Z,6.74
2023-11-09T23:28:05.665Z,6.91
2023-11-09T23:30:32.359Z,6.85
2023-11-09T23:32:59.082Z,6.87
2023-11-09T23:35:25.789Z,6.85
2023-11-09T23:37:52.538Z,6.24
2023-11-09T23:40:19.164Z,6.44
2023-11-09T23:42:45.843Z,6.21
2023-11-09T23:45:13.380Z,5.86
2023-11-09T23:47:40.704Z,5.93
2023-11-09T23:50:10.368Z,5.89
2023-11-09T23:52:37.110Z,5.84
2023-11-09T23:55:04.756Z,5.91
2023-11-09T23:57:32.400Z,5.87
2023-11-09T23:59:59.280Z,5.89
